Aviation Digital Data Service (ADDS)

Output produced by METARs form (1417 UTC 19 April 2019)
found at http://www.aviationweather.gov/metar/data/
 
METAR text: KELP 191351Z 09005KT 10SM FEW200 14/00 A3022 RMK AO2 SLP180 T01390000
Conditions at: KELP (EL PASO , TX, US) observed 1351 UTC 19 April 2019
Temperature: 13.9°C (57°F)
Dewpoint: 0.0°C (32°F) [RH = 38%]
Pressure (altimeter): 30.22 inches Hg (1023.5 mb)
[Sea-level pressure: 1018.0 mb]
Winds: from the E (90 degrees) at 6 MPH (5 knots; 2.6 m/s)
Visibility: 10 or more miles (16+ km)
Ceiling: at least 12,000 feet AGL
Clouds: few clouds at 20000 feet AGL
Weather: no significant weather observed at this time

METAR text: KELP 191251Z 01005KT 10SM CLR 13/M01 A3019 RMK AO2 SLP171 T01281011
Conditions at: KELP (EL PASO , TX, US) observed 1251 UTC 19 April 2019
Temperature: 12.8°C (55°F)
Dewpoint: -1.1°C (30°F) [RH = 38%]
Pressure (altimeter): 30.19 inches Hg (1022.4 mb)
[Sea-level pressure: 1017.1 mb]
Winds: from the N (10 degrees) at 6 MPH (5 knots; 2.6 m/s)
Visibility: 10 or more miles (16+ km)
Ceiling: at least 12,000 feet AGL
Clouds: sky clear below 12,000 feet AGL
Weather: no significant weather observed at this time

METAR text: KELP 191151Z 10009KT 10SM CLR 12/M03 A3014 RMK AO2 SLP156 T01221033 10200 20106 53008
Conditions at: KELP (EL PASO , TX, US) observed 1151 UTC 19 April 2019
Temperature: 12.2°C (54°F)
Dewpoint: -3.3°C (26°F) [RH = 34%]
Pressure (altimeter): 30.14 inches Hg (1020.7 mb)
[Sea-level pressure: 1015.6 mb]
Winds: from the E (100 degrees) at 10 MPH (9 knots; 4.6 m/s)
Visibility: 10 or more miles (16+ km)
Ceiling: at least 12,000 feet AGL
Clouds: sky clear below 12,000 feet AGL
Weather: no significant weather observed at this time

METAR text: KELP 191051Z 14008KT 10SM CLR 12/M03 A3012 RMK AO2 SLP145 T01221028
Conditions at: KELP (EL PASO , TX, US) observed 1051 UTC 19 April 2019
Temperature: 12.2°C (54°F)
Dewpoint: -2.8°C (27°F) [RH = 35%]
Pressure (altimeter): 30.12 inches Hg (1020.1 mb)
[Sea-level pressure: 1014.5 mb]
Winds: from the SE (140 degrees) at 9 MPH (8 knots; 4.1 m/s)
Visibility: 10 or more miles (16+ km)
Ceiling: at least 12,000 feet AGL
Clouds: sky clear below 12,000 feet AGL
Weather: no significant weather observed at this time

METAR text: KELP 190951Z 05004KT 10SM CLR 12/M03 A3012 RMK AO2 SLP148 T01171033
Conditions at: KELP (EL PASO , TX, US) observed 0951 UTC 19 April 2019
Temperature: 11.7°C (53°F)
Dewpoint: -3.3°C (26°F) [RH = 35%]
Pressure (altimeter): 30.12 inches Hg (1020.1 mb)
[Sea-level pressure: 1014.8 mb]
Winds: from the NE (50 degrees) at 5 MPH (4 knots; 2.1 m/s)
Visibility: 10 or more miles (16+ km)
Ceiling: at least 12,000 feet AGL
Clouds: sky clear below 12,000 feet AGL
Weather: no significant weather observed at this time

METAR text: KELP 190851Z 08004KT 10SM CLR 14/M03 A3012 RMK AO2 SLP145 T01391033 58003
Conditions at: KELP (EL PASO , TX, US) observed 0851 UTC 19 April 2019
Temperature: 13.9°C (57°F)
Dewpoint: -3.3°C (26°F) [RH = 30%]
Pressure (altimeter): 30.12 inches Hg (1020.1 mb)
[Sea-level pressure: 1014.5 mb]
Winds: from the E (80 degrees) at 5 MPH (4 knots; 2.1 m/s)
Visibility: 10 or more miles (16+ km)
Ceiling: at least 12,000 feet AGL
Clouds: sky clear below 12,000 feet AGL
Weather: no significant weather observed at this time

METAR text: KELP 190751Z 19006KT 10SM FEW190 18/M04 A3012 RMK AO2 SLP143 T01781044
Conditions at: KELP (EL PASO , TX, US) observed 0751 UTC 19 April 2019
Temperature: 17.8°C (64°F)
Dewpoint: -4.4°C (24°F) [RH = 22%]
Pressure (altimeter): 30.12 inches Hg (1020.1 mb)
[Sea-level pressure: 1014.3 mb]
Winds: from the S (190 degrees) at 7 MPH (6 knots; 3.1 m/s)
Visibility: 10 or more miles (16+ km)
Ceiling: at least 12,000 feet AGL
Clouds: few clouds at 19000 feet AGL
Weather: no significant weather observed at this time

METAR text: KELP 190651Z 18005KT 10SM FEW190 19/M05 A3013 RMK AO2 SLP144 T01941050 402610094
Conditions at: KELP (EL PASO , TX, US) observed 0651 UTC 19 April 2019
Temperature: 19.4°C (67°F)
Dewpoint: -5.0°C (23°F) [RH = 19%]
Pressure (altimeter): 30.13 inches Hg (1020.4 mb)
[Sea-level pressure: 1014.4 mb]
Winds: from the S (180 degrees) at 6 MPH (5 knots; 2.6 m/s)
Visibility: 10 or more miles (16+ km)
Ceiling: at least 12,000 feet AGL
Clouds: few clouds at 19000 feet AGL
Weather: no significant weather observed at this time

METAR text: KELP 190551Z 23006KT 10SM FEW200 19/M04 A3013 RMK AO2 SLP145 T01941044 10261 20189 51006
Conditions at: KELP (EL PASO , TX, US) observed 0551 UTC 19 April 2019
Temperature: 19.4°C (67°F)
Dewpoint: -4.4°C (24°F) [RH = 20%]
Pressure (altimeter): 30.13 inches Hg (1020.4 mb)
[Sea-level pressure: 1014.5 mb]
Winds: from the SW (230 degrees) at 7 MPH (6 knots; 3.1 m/s)
Visibility: 10 or more miles (16+ km)
Ceiling: at least 12,000 feet AGL
Clouds: few clouds at 20000 feet AGL
Weather: no significant weather observed at this time

METAR text: KELP 190451Z 24005KT 10SM CLR 19/M03 A3013 RMK AO2 SLP145 T01941033
Conditions at: KELP (EL PASO , TX, US) observed 0451 UTC 19 April 2019
Temperature: 19.4°C (67°F)
Dewpoint: -3.3°C (26°F) [RH = 21%]
Pressure (altimeter): 30.13 inches Hg (1020.4 mb)
[Sea-level pressure: 1014.5 mb]
Winds: from the WSW (240 degrees) at 6 MPH (5 knots; 2.6 m/s)
Visibility: 10 or more miles (16+ km)
Ceiling: at least 12,000 feet AGL
Clouds: sky clear below 12,000 feet AGL
Weather: no significant weather observed at this time

METAR text: KELP 190351Z 23005KT 10SM CLR 20/M03 A3012 RMK AO2 SLP148 T02001028
Conditions at: KELP (EL PASO , TX, US) observed 0351 UTC 19 April 2019
Temperature: 20.0°C (68°F)
Dewpoint: -2.8°C (27°F) [RH = 21%]
Pressure (altimeter): 30.12 inches Hg (1020.1 mb)
[Sea-level pressure: 1014.8 mb]
Winds: from the SW (230 degrees) at 6 MPH (5 knots; 2.6 m/s)
Visibility: 10 or more miles (16+ km)
Ceiling: at least 12,000 feet AGL
Clouds: sky clear below 12,000 feet AGL
Weather: no significant weather observed at this time

METAR text: KELP 190251Z 00000KT 10SM CLR 22/M03 A3011 RMK AO2 SLP143 T02221028 53006
Conditions at: KELP (EL PASO , TX, US) observed 0251 UTC 19 April 2019
Temperature: 22.2°C (72°F)
Dewpoint: -2.8°C (27°F) [RH = 19%]
Pressure (altimeter): 30.11 inches Hg (1019.7 mb)
[Sea-level pressure: 1014.3 mb]
Winds: calm
Visibility: 10 or more miles (16+ km)
Ceiling: at least 12,000 feet AGL
Clouds: sky clear below 12,000 feet AGL
Weather: no significant weather observed at this time

METAR text: KELP 190151Z 33005KT 10SM FEW200 24/M03 A3010 RMK AO2 SLP139 T02441033
Conditions at: KELP (EL PASO , TX, US) observed 0151 UTC 19 April 2019
Temperature: 24.4°C (76°F)
Dewpoint: -3.3°C (26°F) [RH = 16%]
Pressure (altimeter): 30.10 inches Hg (1019.4 mb)
[Sea-level pressure: 1013.9 mb]
Winds: from the NNW (330 degrees) at 6 MPH (5 knots; 2.6 m/s)
Visibility: 10 or more miles (16+ km)
Ceiling: at least 12,000 feet AGL
Clouds: few clouds at 20000 feet AGL
Weather: no significant weather observed at this time

METAR text: KELP 190051Z VRB03KT 10SM FEW080 25/M03 A3008 RMK AO2 SLP136 T02501028
Conditions at: KELP (EL PASO , TX, US) observed 0051 UTC 19 April 2019
Temperature: 25.0°C (77°F)
Dewpoint: -2.8°C (27°F) [RH = 16%]
Pressure (altimeter): 30.08 inches Hg (1018.7 mb)
[Sea-level pressure: 1013.6 mb]
Winds: variable direction winds at 3 MPH (3 knots; 1.5 m/s)
Visibility: 10 or more miles (16+ km)
Ceiling: at least 12,000 feet AGL
Clouds: few clouds at 8000 feet AGL
Weather: no significant weather observed at this time

METAR text: KELP 182351Z VRB04KT 10SM FEW080 26/M02 A3009 RMK AO2 SLP136 T02561017 10261 20206 56016
Conditions at: KELP (EL PASO , TX, US) observed 2351 UTC 18 April 2019
Temperature: 25.6°C (78°F)
Dewpoint: -1.7°C (29°F) [RH = 16%]
Pressure (altimeter): 30.09 inches Hg (1019.0 mb)
[Sea-level pressure: 1013.6 mb]
Winds: variable direction winds at 5 MPH (4 knots; 2.1 m/s)
Visibility: 10 or more miles (16+ km)
Ceiling: at least 12,000 feet AGL
Clouds: few clouds at 8000 feet AGL
Weather: no significant weather observed at this time

METAR text: KELP 182251Z 29003KT 10SM FEW080 26/02 A3009 RMK AO2 SLP139 T02610017
Conditions at: KELP (EL PASO , TX, US) observed 2251 UTC 18 April 2019
Temperature: 26.1°C (79°F)
Dewpoint: 1.7°C (35°F) [RH = 20%]
Pressure (altimeter): 30.09 inches Hg (1019.0 mb)
[Sea-level pressure: 1013.9 mb]
Winds: from the WNW (290 degrees) at 3 MPH (3 knots; 1.5 m/s)
Visibility: 10 or more miles (16+ km)
Ceiling: at least 12,000 feet AGL
Clouds: few clouds at 8000 feet AGL
Weather: no significant weather observed at this time

METAR text: KELP 182151Z 00000KT 10SM FEW080 24/02 A3011 RMK AO2 SLP144 T02440022
Conditions at: KELP (EL PASO , TX, US) observed 2151 UTC 18 April 2019
Temperature: 24.4°C (76°F)
Dewpoint: 2.2°C (36°F) [RH = 23%]
Pressure (altimeter): 30.11 inches Hg (1019.7 mb)
[Sea-level pressure: 1014.4 mb]
Winds: calm
Visibility: 10 or more miles (16+ km)
Ceiling: at least 12,000 feet AGL
Clouds: few clouds at 8000 feet AGL
Weather: no significant weather observed at this time

METAR text: KELP 182051Z 05003KT 10SM FEW080 24/02 A3014 RMK AO2 SLP156 T02440022 57011
Conditions at: KELP (EL PASO , TX, US) observed 2051 UTC 18 April 2019
Temperature: 24.4°C (76°F)
Dewpoint: 2.2°C (36°F) [RH = 23%]
Pressure (altimeter): 30.14 inches Hg (1020.7 mb)
[Sea-level pressure: 1015.6 mb]
Winds: from the NE (50 degrees) at 3 MPH (3 knots; 1.5 m/s)
Visibility: 10 or more miles (16+ km)
Ceiling: at least 12,000 feet AGL
Clouds: few clouds at 8000 feet AGL
Weather: no significant weather observed at this time

METAR text: KELP 181951Z VRB05KT 10SM FEW075 23/03 A3015 RMK AO2 SLP159 T02330033
Conditions at: KELP (EL PASO , TX, US) observed 1951 UTC 18 April 2019
Temperature: 23.3°C (74°F)
Dewpoint: 3.3°C (38°F) [RH = 27%]
Pressure (altimeter): 30.15 inches Hg (1021.1 mb)
[Sea-level pressure: 1015.9 mb]
Winds: variable direction winds at 6 MPH (5 knots; 2.6 m/s)
Visibility: 10 or more miles (16+ km)
Ceiling: at least 12,000 feet AGL
Clouds: few clouds at 7500 feet AGL
Weather: no significant weather observed at this time

METAR text: KELP 181851Z VRB04KT 10SM FEW075 23/04 A3016 RMK AO2 SLP161 T02280039
Conditions at: KELP (EL PASO , TX, US) observed 1851 UTC 18 April 2019
Temperature: 22.8°C (73°F)
Dewpoint: 3.9°C (39°F) [RH = 29%]
Pressure (altimeter): 30.16 inches Hg (1021.4 mb)
[Sea-level pressure: 1016.1 mb]
Winds: variable direction winds at 5 MPH (4 knots; 2.1 m/s)
Visibility: 10 or more miles (16+ km)
Ceiling: at least 12,000 feet AGL
Clouds: few clouds at 7500 feet AGL
Weather: no significant weather observed at this time

METAR text: KELP 181751Z VRB04KT 10SM FEW070 21/04 A3018 RMK AO2 SLP166 T02110044 10217 20094 52007
Conditions at: KELP (EL PASO , TX, US) observed 1751 UTC 18 April 2019
Temperature: 21.1°C (70°F)
Dewpoint: 4.4°C (40°F) [RH = 33%]
Pressure (altimeter): 30.18 inches Hg (1022.1 mb)
[Sea-level pressure: 1016.6 mb]
Winds: variable direction winds at 5 MPH (4 knots; 2.1 m/s)
Visibility: 10 or more miles (16+ km)
Ceiling: at least 12,000 feet AGL
Clouds: few clouds at 7000 feet AGL
Weather: no significant weather observed at this time

METAR text: KELP 181651Z 01008KT 10SM FEW070 20/05 A3017 RMK AO2 SLP166 T02000050
Conditions at: KELP (EL PASO , TX, US) observed 1651 UTC 18 April 2019
Temperature: 20.0°C (68°F)
Dewpoint: 5.0°C (41°F) [RH = 37%]
Pressure (altimeter): 30.17 inches Hg (1021.8 mb)
[Sea-level pressure: 1016.6 mb]
Winds: from the N (10 degrees) at 9 MPH (8 knots; 4.1 m/s)
Visibility: 10 or more miles (16+ km)
Ceiling: at least 12,000 feet AGL
Clouds: few clouds at 7000 feet AGL
Weather: no significant weather observed at this time

METAR text: KELP 181551Z 05005KT 10SM FEW070 18/06 A3016 RMK AO2 SLP163 T01780056
Conditions at: KELP (EL PASO , TX, US) observed 1551 UTC 18 April 2019
Temperature: 17.8°C (64°F)
Dewpoint: 5.6°C (42°F) [RH = 45%]
Pressure (altimeter): 30.16 inches Hg (1021.4 mb)
[Sea-level pressure: 1016.3 mb]
Winds: from the NE (50 degrees) at 6 MPH (5 knots; 2.6 m/s)
Visibility: 10 or more miles (16+ km)
Ceiling: at least 12,000 feet AGL
Clouds: few clouds at 7000 feet AGL
Weather: no significant weather observed at this time

METAR text: KELP 181451Z VRB03KT 10SM FEW070 15/06 A3015 RMK AO2 SLP165 T01500056 51031
Conditions at: KELP (EL PASO , TX, US) observed 1451 UTC 18 April 2019
Temperature: 15.0°C (59°F)
Dewpoint: 5.6°C (42°F) [RH = 53%]
Pressure (altimeter): 30.15 inches Hg (1021.1 mb)
[Sea-level pressure: 1016.5 mb]
Winds: variable direction winds at 3 MPH (3 knots; 1.5 m/s)
Visibility: 10 or more miles (16+ km)
Ceiling: at least 12,000 feet AGL
Clouds: few clouds at 7000 feet AGL
Weather: no significant weather observed at this time

METAR text: KELP 181351Z 02005KT 10SM FEW090 12/06 A3014 RMK AO2 SLP163 T01220056
Conditions at: KELP (EL PASO , TX, US) observed 1351 UTC 18 April 2019
Temperature: 12.2°C (54°F)
Dewpoint: 5.6°C (42°F) [RH = 64%]
Pressure (altimeter): 30.14 inches Hg (1020.7 mb)
[Sea-level pressure: 1016.3 mb]
Winds: from the NNE (20 degrees) at 6 MPH (5 knots; 2.6 m/s)
Visibility: 10 or more miles (16+ km)
Ceiling: at least 12,000 feet AGL
Clouds: few clouds at 9000 feet AGL
Weather: no significant weather observed at this time

METAR text: KELP 181251Z 11007KT 10SM FEW085 10/05 A3009 RMK AO2 SLP147 T01000050
Conditions at: KELP (EL PASO , TX, US) observed 1251 UTC 18 April 2019
Temperature: 10.0°C (50°F)
Dewpoint: 5.0°C (41°F) [RH = 71%]
Pressure (altimeter): 30.09 inches Hg (1019.0 mb)
[Sea-level pressure: 1014.7 mb]
Winds: from the ESE (110 degrees) at 8 MPH (7 knots; 3.6 m/s)
Visibility: 10 or more miles (16+ km)
Ceiling: at least 12,000 feet AGL
Clouds: few clouds at 8500 feet AGL
Weather: no significant weather observed at this time

METAR text: KELP 181151Z 10006KT 10SM FEW085 11/05 A3005 RMK AO2 SLP134 T01060050 10161 20100 53016
Conditions at: KELP (EL PASO , TX, US) observed 1151 UTC 18 April 2019
Temperature: 10.6°C (51°F)
Dewpoint: 5.0°C (41°F) [RH = 68%]
Pressure (altimeter): 30.05 inches Hg (1017.7 mb)
[Sea-level pressure: 1013.4 mb]
Winds: from the E (100 degrees) at 7 MPH (6 knots; 3.1 m/s)
Visibility: 10 or more miles (16+ km)
Ceiling: at least 12,000 feet AGL
Clouds: few clouds at 8500 feet AGL
Weather: no significant weather observed at this time

METAR text: KELP 181051Z 12006KT 10SM CLR 11/06 A3002 RMK AO2 SLP124 T01060056
Conditions at: KELP (EL PASO , TX, US) observed 1051 UTC 18 April 2019
Temperature: 10.6°C (51°F)
Dewpoint: 5.6°C (42°F) [RH = 71%]
Pressure (altimeter): 30.02 inches Hg (1016.7 mb)
[Sea-level pressure: 1012.4 mb]
Winds: from the ESE (120 degrees) at 7 MPH (6 knots; 3.1 m/s)
Visibility: 10 or more miles (16+ km)
Ceiling: at least 12,000 feet AGL
Clouds: sky clear below 12,000 feet AGL
Weather: no significant weather observed at this time

METAR text: KELP 180951Z 12006KT 10SM CLR 11/06 A3001 RMK AO2 SLP119 T01060061
Conditions at: KELP (EL PASO , TX, US) observed 0951 UTC 18 April 2019
Temperature: 10.6°C (51°F)
Dewpoint: 6.1°C (43°F) [RH = 74%]
Pressure (altimeter): 30.01 inches Hg (1016.3 mb)
[Sea-level pressure: 1011.9 mb]
Winds: from the ESE (120 degrees) at 7 MPH (6 knots; 3.1 m/s)
Visibility: 10 or more miles (16+ km)
Ceiling: at least 12,000 feet AGL
Clouds: sky clear below 12,000 feet AGL
Weather: no significant weather observed at this time

METAR text: KELP 180851Z 09004KT 10SM FEW250 11/07 A3000 RMK AO2 SLP113 T01060067 58001
Conditions at: KELP (EL PASO , TX, US) observed 0851 UTC 18 April 2019
Temperature: 10.6°C (51°F)
Dewpoint: 6.7°C (44°F) [RH = 77%]
Pressure (altimeter): 30.00 inches Hg (1016.0 mb)
[Sea-level pressure: 1011.3 mb]
Winds: from the E (90 degrees) at 5 MPH (4 knots; 2.1 m/s)
Visibility: 10 or more miles (16+ km)
Ceiling: at least 12,000 feet AGL
Clouds: few clouds at 25000 feet AGL
Weather: no significant weather observed at this time

METAR text: KELP 180751Z 09005KT 10SM FEW075 FEW250 13/06 A3001 RMK AO2 SLP115 T01330061
Conditions at: KELP (EL PASO , TX, US) observed 0751 UTC 18 April 2019
Temperature: 13.3°C (56°F)
Dewpoint: 6.1°C (43°F) [RH = 62%]
Pressure (altimeter): 30.01 inches Hg (1016.3 mb)
[Sea-level pressure: 1011.5 mb]
Winds: from the E (90 degrees) at 6 MPH (5 knots; 2.6 m/s)
Visibility: 10 or more miles (16+ km)
Ceiling: at least 12,000 feet AGL
Clouds: few clouds at 7500 feet AGL
few clouds at 25000 feet AGL
Weather: no significant weather observed at this time

METAR text: KELP 180651Z 32005KT 10SM FEW070 15/04 A3000 RMK AO2 SLP112 T01500044 402060117
Conditions at: KELP (EL PASO , TX, US) observed 0651 UTC 18 April 2019
Temperature: 15.0°C (59°F)
Dewpoint: 4.4°C (40°F) [RH = 49%]
Pressure (altimeter): 30.00 inches Hg (1016.0 mb)
[Sea-level pressure: 1011.2 mb]
Winds: from the NW (320 degrees) at 6 MPH (5 knots; 2.6 m/s)
Visibility: 10 or more miles (16+ km)
Ceiling: at least 12,000 feet AGL
Clouds: few clouds at 7000 feet AGL
Weather: no significant weather observed at this time

METAR text: KELP 180551Z 34010KT 10SM FEW085 SCT180 16/04 A3000 RMK AO2 SLP111 60000 T01610044 10189 20150 51010
Conditions at: KELP (EL PASO , TX, US) observed 0551 UTC 18 April 2019
Temperature: 16.1°C (61°F)
Dewpoint: 4.4°C (40°F) [RH = 46%]
Pressure (altimeter): 30.00 inches Hg (1016.0 mb)
[Sea-level pressure: 1011.1 mb]
Winds: from the NNW (340 degrees) at 12 MPH (10 knots; 5.1 m/s)
Visibility: 10 or more miles (16+ km)
Ceiling: at least 12,000 feet AGL
Clouds: few clouds at 8500 feet AGL
scattered clouds at 18000 feet AGL
Weather: no significant weather observed at this time

METAR text: KELP 180451Z 35007KT 10SM SCT080 SCT180 15/06 A3000 RMK AO2 SLP117 T01500056
Conditions at: KELP (EL PASO , TX, US) observed 0451 UTC 18 April 2019
Temperature: 15.0°C (59°F)
Dewpoint: 5.6°C (42°F) [RH = 53%]
Pressure (altimeter): 30.00 inches Hg (1016.0 mb)
[Sea-level pressure: 1011.7 mb]
Winds: from the N (350 degrees) at 8 MPH (7 knots; 3.6 m/s)
Visibility: 10 or more miles (16+ km)
Ceiling: at least 12,000 feet AGL
Clouds: scattered clouds at 8000 feet AGL
scattered clouds at 18000 feet AGL
Weather: no significant weather observed at this time

METAR text: KELP 180351Z 30014KT 10SM FEW070 SCT090 SCT180 17/04 A2999 RMK AO2 SLP112 T01720039
Conditions at: KELP (EL PASO , TX, US) observed 0351 UTC 18 April 2019
Temperature: 17.2°C (63°F)
Dewpoint: 3.9°C (39°F) [RH = 41%]
Pressure (altimeter): 29.99 inches Hg (1015.7 mb)
[Sea-level pressure: 1011.2 mb]
Winds: from the WNW (300 degrees) at 16 MPH (14 knots; 7.2 m/s)
Visibility: 10 or more miles (16+ km)
Ceiling: at least 12,000 feet AGL
Clouds: few clouds at 7000 feet AGL
scattered clouds at 9000 feet AGL
scattered clouds at 18000 feet AGL
Weather: no significant weather observed at this time

METAR text: KELP 180251Z 29015KT 10SM FEW070 BKN100 BKN180 17/03 A2997 RMK AO2 PK WND 31029/0154 RAB0154E05 SLP103 VCSH NE SHRA DSNT E P0000 60000 T01720033 53015
Conditions at: KELP (EL PASO , TX, US) observed 0251 UTC 18 April 2019
Temperature: 17.2°C (63°F)
Dewpoint: 3.3°C (38°F) [RH = 39%]
Pressure (altimeter): 29.97 inches Hg (1015.0 mb)
[Sea-level pressure: 1010.3 mb]
Winds: from the WNW (290 degrees) at 17 MPH (15 knots; 7.7 m/s)
Visibility: 10 or more miles (16+ km)
Ceiling: 10000 feet AGL
Clouds: few clouds at 7000 feet AGL
broken clouds at 10000 feet AGL
broken clouds at 18000 feet AGL
Weather: no significant weather observed at this time

Forecast for: KELP (EL PASO , TX, US)
Text: KELP 191151Z 1912/2012 09009KT P6SM SKC
Forecast period: 1200 to 1900 UTC 19 April 2019
Forecast type: FROM: standard forecast or significant change
Winds: from the E (90 degrees) at 10 MPH (9 knots; 4.6 m/s)
Visibility: 6 or more miles 10+ km)
Clouds: clear skies
Weather: no significant weather forecast for this period
Text: FM191900 15006KT P6SM SKC
Forecast period: 1900 UTC 19 April 2019 to 0600 UTC 20 April 2019
Forecast type: FROM: standard forecast or significant change
Winds: from the SSE (150 degrees) at 7 MPH (6 knots; 3.1 m/s)
Visibility: 6 or more miles 10+ km)
Clouds: clear skies
Weather: no significant weather forecast for this period
Text: FM200600 08005KT P6SM FEW250
Forecast period: 0600 to 1200 UTC 20 April 2019
Forecast type: FROM: standard forecast or significant change
Winds: from the E (80 degrees) at 6 MPH (5 knots; 2.6 m/s)
Visibility: 6 or more miles 10+ km)
Ceiling: at least 12,000 feet AGL
Clouds: few clouds at 25000 feet AGL
Weather: no significant weather forecast for this period